createdAt,value
2022-10-01T00:00:04.858Z,21.80
2022-10-01T00:02:31.266Z,21.48
2022-10-01T00:04:58.115Z,18.65
2022-10-01T00:07:24.447Z,21.38
2022-10-01T00:09:50.826Z,23.75
2022-10-01T00:12:17.146Z,26.70
2022-10-01T00:14:44.534Z,26.13
2022-10-01T00:17:10.923Z,27.95
2022-10-01T00:19:37.294Z,30.52
2022-10-01T00:22:03.750Z,36.35
2022-10-01T00:24:30.078Z,43.10
2022-10-01T00:26:57.658Z,48.05
2022-10-01T00:29:23.983Z,47.67
2022-10-01T00:31:50.429Z,48.50
2022-10-01T00:34:16.783Z,49.70
2022-10-01T00:36:43.199Z,46.03
2022-10-01T00:39:11.928Z,40.67
2022-10-01T00:41:38.481Z,42.40
2022-10-01T00:44:28.649Z,38.05
2022-10-01T00:46:58.339Z,36.83
2022-10-01T00:49:27.827Z,37.05
2022-10-01T00:51:58.023Z,40.42
2022-10-01T00:54:31.569Z,43.63
2022-10-01T00:57:00.662Z,50.53
2022-10-01T00:59:28.435Z,46.58
2022-10-01T01:01:54.903Z,51.45
2022-10-01T01:04:21.383Z,54.58
2022-10-01T01:06:59.448Z,52.22
2022-10-01T01:09:36.145Z,53.75
2022-10-01T01:12:40.007Z,49.95
2022-10-01T01:15:20.339Z,58.67
2022-10-01T01:17:57.582Z,52.38
2022-10-01T01:20:57.277Z,51.55
2022-10-01T01:23:29.170Z,56.22
2022-10-01T01:26:10.491Z,54.78
2022-10-01T01:28:47.646Z,48.67
2022-10-01T01:31:18.608Z,50.80
2022-10-01T01:33:49.727Z,49.58
2022-10-01T01:36:20.245Z,51.30
2022-10-01T01:38:51.923Z,52.03
2022-10-01T01:41:20.686Z,51.08
2022-10-01T01:43:51.255Z,54.50
2022-10-01T01:46:19.023Z,53.58
2022-10-01T01:48:50.835Z,50.55
2022-10-01T01:51:24.816Z,48.30
2022-10-01T01:53:51.336Z,50.28
2022-10-01T01:56:18.106Z,48.72
2022-10-01T01:58:45.640Z,50.38
2022-10-01T02:01:41.257Z,57.25
2022-10-01T02:04:34.095Z,54.50
2022-10-01T02:07:16.956Z,64.45
2022-10-01T02:09:53.118Z,59.80
2022-10-01T02:12:34.265Z,54.70
2022-10-01T02:15:13.347Z,61.15
2022-10-01T02:18:00.982Z,58.63
2022-10-01T02:20:45.590Z,56.65
2022-10-01T02:23:17.100Z,50.28
2022-10-01T02:25:49.717Z,51.97
2022-10-01T02:28:21.233Z,54.83
2022-10-01T02:30:49.423Z,50.97
2022-10-01T02:33:22.811Z,57.28
2022-10-01T02:35:53.160Z,56.07
2022-10-01T02:38:23.117Z,57.13
2022-10-01T02:40:53.729Z,58.65
2022-10-01T02:43:27.978Z,61.60
2022-10-01T02:46:00.011Z,58.47
2022-10-01T02:48:27.122Z,58.05
2022-10-01T02:51:04.220Z,66.57
2022-10-01T02:53:37.330Z,71.50
2022-10-01T02:56:05.843Z,72.15
2022-10-01T02:58:32.312Z,62.00
2022-10-01T03:00:58.665Z,71.10
2022-10-01T03:03:26.062Z,69.95
2022-10-01T03:05:52.402Z,68.15
2022-10-01T03:08:19.455Z,71.75
2022-10-01T03:10:46.889Z,65.47
2022-10-01T03:13:13.677Z,69.65
2022-10-01T03:15:40.135Z,70.65
2022-10-01T03:18:06.502Z,73.00
2022-10-01T03:20:32.799Z,71.10
2022-10-01T03:22:59.117Z,72.57
2022-10-01T03:25:25.436Z,73.45
2022-10-01T03:27:52.074Z,68.03
2022-10-01T03:30:18.664Z,74.22
2022-10-01T03:32:44.993Z,67.38
2022-10-01T03:35:11.424Z,74.68
2022-10-01T03:37:37.786Z,68.07
2022-10-01T03:40:04.768Z,73.65
2022-10-01T03:42:31.114Z,72.13
2022-10-01T03:44:57.447Z,62.35
2022-10-01T03:47:24.254Z,65.20
2022-10-01T03:49:50.544Z,59.33
2022-10-01T03:52:16.915Z,61.28
2022-10-01T03:54:43.221Z,59.38
2022-10-01T03:57:09.573Z,62.63
2022-10-01T03:59:36.083Z,58.53
2022-10-01T04:02:02.810Z,62.28
2022-10-01T04:04:29.228Z,56.67
2022-10-01T04:06:55.588Z,58.60
2022-10-01T04:09:21.959Z,59.58
2022-10-01T04:11:48.690Z,57.22
2022-10-01T04:14:14.983Z,54.97
2022-10-01T04:16:41.310Z,43.97
2022-10-01T04:19:07.696Z,49.05
2022-10-01T04:21:34.274Z,46.67
2022-10-01T04:24:02.980Z,42.60
2022-10-01T04:26:29.288Z,42.75
2022-10-01T04:28:55.637Z,40.95
2022-10-01T04:31:24.982Z,38.53
2022-10-01T04:33:56.554Z,39.33
2022-10-01T04:36:24.035Z,39.28
2022-10-01T04:38:52.246Z,39.70
2022-10-01T04:41:19.475Z,36.70
2022-10-01T04:43:46.003Z,39.58
2022-10-01T04:46:12.407Z,40.78
2022-10-01T04:48:38.760Z,38.15
2022-10-01T04:51:05.172Z,36.50
2022-10-01T04:53:31.635Z,36.38
2022-10-01T04:55:58.016Z,34.15
2022-10-01T04:58:24.442Z,37.83
2022-10-01T05:00:50.878Z,36.60
2022-10-01T05:03:17.782Z,35.65
2022-10-01T05:05:44.366Z,32.45
2022-10-01T05:08:10.695Z,35.58
2022-10-01T05:10:37.088Z,33.42
2022-10-01T05:13:03.438Z,33.88
2022-10-01T05:15:30.529Z,32.80
2022-10-01T05:17:57.006Z,34.63
2022-10-01T05:20:26.039Z,31.58
2022-10-01T05:22:53.162Z,35.80
2022-10-01T05:25:19.871Z,33.28
2022-10-01T05:27:46.563Z,32.15
2022-10-01T05:30:17.343Z,30.42
2022-10-01T05:32:43.674Z,32.53
2022-10-01T05:35:09.990Z,31.08
2022-10-01T05:37:36.364Z,30.13
2022-10-01T05:40:02.896Z,30.27
2022-10-01T05:42:29.221Z,34.25
2022-10-01T05:44:55.985Z,29.42
2022-10-01T05:47:22.504Z,29.85
2022-10-01T05:49:48.818Z,31.88
2022-10-01T05:52:16.296Z,34.90
2022-10-01T05:54:42.792Z,35.70
2022-10-01T05:57:09.430Z,34.00
2022-10-01T05:59:35.892Z,37.00
2022-10-01T06:02:02.717Z,38.08
2022-10-01T06:04:29.167Z,38.17
2022-10-01T06:06:56.107Z,38.55
2022-10-01T06:09:22.529Z,38.90
2022-10-01T06:11:49.429Z,36.75
2022-10-01T06:14:16.362Z,36.78
2022-10-01T06:16:42.808Z,35.28
2022-10-01T06:19:09.177Z,37.95
2022-10-01T06:21:36.066Z,37.67
2022-10-01T06:24:02.654Z,38.15
2022-10-01T06:26:28.988Z,40.60
2022-10-01T06:28:55.301Z,37.30
2022-10-01T06:31:21.998Z,42.03
2022-10-01T06:33:48.498Z,39.55
2022-10-01T06:36:14.932Z,40.33
2022-10-01T06:38:42.837Z,38.55
2022-10-01T06:41:09.532Z,42.05
2022-10-01T06:43:36.211Z,39.97
2022-10-01T06:46:04.971Z,39.20
2022-10-01T06:48:32.355Z,39.53
2022-10-01T06:50:59.403Z,39.50
2022-10-01T06:53:27.681Z,37.53
2022-10-01T06:55:54.489Z,43.70
2022-10-01T06:58:22.705Z,41.55
2022-10-01T07:00:49.750Z,40.88
2022-10-01T07:03:21.680Z,40.63
2022-10-01T07:05:50.062Z,39.90
2022-10-01T07:08:17.649Z,40.90
2022-10-01T07:10:44.324Z,41.92
2022-10-01T07:13:12.050Z,40.25
2022-10-01T07:15:38.752Z,45.53
2022-10-01T07:18:06.218Z,45.17
2022-10-01T07:20:35.831Z,50.97
2022-10-01T07:23:02.508Z,50.10
2022-10-01T07:25:29.593Z,47.53
2022-10-01T07:28:04.495Z,50.03
2022-10-01T07:30:32.342Z,52.58
2022-10-01T07:32:59.116Z,50.90
2022-10-01T07:35:25.775Z,56.50
2022-10-01T07:37:53.562Z,48.05
2022-10-01T07:40:19.861Z,62.47
2022-10-01T07:42:54.563Z,58.00
2022-10-01T07:45:24.862Z,65.10
2022-10-01T07:47:59.702Z,65.03
2022-10-01T07:50:29.456Z,61.30
2022-10-01T07:52:57.870Z,66.50
2022-10-01T07:55:26.871Z,71.53
2022-10-01T07:57:55.060Z,65.47
2022-10-01T08:00:22.694Z,61.03
2022-10-01T08:02:51.221Z,66.10
2022-10-01T08:05:20.079Z,62.38
2022-10-01T08:07:47.665Z,64.95
2022-10-01T08:10:17.419Z,71.10
2022-10-01T08:12:44.185Z,75.72
2022-10-01T08:15:12.104Z,76.13
2022-10-01T08:17:42.030Z,73.75
2022-10-01T08:20:10.638Z,72.18
2022-10-01T08:22:41.658Z,78.00
2022-10-01T08:25:08.906Z,78.45
2022-10-01T08:27:35.345Z,80.40
2022-10-01T08:30:01.694Z,79.53
2022-10-01T08:32:28.225Z,85.07
2022-10-01T08:34:59.837Z,83.80
2022-10-01T08:37:28.467Z,88.65
2022-10-01T08:39:56.416Z,87.22
2022-10-01T08:42:22.746Z,88.05
2022-10-01T08:44:51.945Z,89.22
2022-10-01T08:47:35.535Z,84.97
2022-10-01T08:50:28.655Z,84.68
2022-10-01T08:53:01.565Z,79.55
2022-10-01T08:55:36.052Z,81.20
2022-10-01T08:58:05.772Z,88.63
2022-10-01T09:00:36.999Z,92.57
2022-10-01T09:03:11.720Z,93.22
2022-10-01T09:05:41.216Z,93.57
2022-10-01T09:08:43.593Z,93.75
2022-10-01T09:11:52.240Z,91.05
2022-10-01T09:14:40.594Z,95.40
2022-10-01T09:17:30.490Z,87.53
2022-10-01T09:20:06.426Z,92.60
2022-10-01T09:22:47.723Z,94.82
2022-10-01T09:25:21.997Z,92.55
2022-10-01T09:27:49.635Z,94.45
2022-10-01T09:30:25.086Z,98.10
2022-10-01T09:33:09.018Z,101.15
2022-10-01T09:35:46.965Z,100.93
2022-10-01T09:38:21.829Z,103.57
2022-10-01T09:40:54.856Z,102.30
2022-10-01T09:43:33.068Z,99.25
2022-10-01T09:46:00.001Z,99.38
2022-10-01T09:48:49.363Z,100.75
2022-10-01T09:51:41.133Z,103.13
2022-10-01T09:54:17.949Z,98.22
2022-10-01T09:56:59.165Z,102.65
2022-10-01T09:59:34.425Z,94.93
2022-10-01T10:02:04.044Z,105.18
2022-10-01T10:04:30.952Z,106.72
2022-10-01T10:07:03.857Z,107.82
2022-10-01T10:09:33.088Z,109.53
2022-10-01T10:12:00.039Z,104.57
2022-10-01T10:14:33.753Z,99.10
2022-10-01T10:17:13.006Z,95.47
2022-10-01T10:19:41.100Z,90.65
2022-10-01T10:22:13.556Z,93.97
2022-10-01T10:24:39.927Z,83.38
2022-10-01T10:27:20.793Z,74.72
2022-10-01T10:29:47.246Z,60.75
2022-10-01T10:32:26.097Z,63.15
2022-10-01T10:35:02.042Z,45.65
2022-10-01T10:37:37.494Z,46.25
2022-10-01T10:40:08.143Z,55.45
2022-10-01T10:42:38.708Z,40.92
2022-10-01T10:45:16.367Z,32.63
2022-10-01T10:47:53.210Z,33.20
2022-10-01T10:50:35.997Z,33.83
2022-10-01T10:53:19.765Z,31.48
2022-10-01T10:56:03.766Z,26.73
2022-10-01T10:58:33.132Z,31.75
2022-10-01T11:01:05.985Z,30.25
2022-10-01T11:03:33.093Z,33.72
2022-10-01T11:06:09.270Z,30.20
2022-10-01T11:08:35.767Z,28.33
2022-10-01T11:11:07.319Z,29.92
2022-10-01T11:13:37.883Z,27.60
2022-10-01T11:16:25.317Z,29.92
2022-10-01T11:19:01.475Z,31.58
2022-10-01T11:21:34.192Z,34.22
2022-10-01T11:24:03.237Z,33.47
2022-10-01T11:26:53.512Z,34.67
2022-10-01T11:29:53.677Z,29.38
2022-10-01T11:32:35.885Z,32.95
2022-10-01T11:35:11.470Z,27.83
2022-10-01T11:37:49.425Z,30.67
2022-10-01T11:40:24.824Z,30.50
2022-10-01T11:42:57.536Z,31.40
2022-10-01T11:45:35.866Z,30.42
2022-10-01T11:48:10.375Z,31.40
2022-10-01T11:50:42.630Z,31.10
2022-10-01T11:53:21.972Z,33.17
2022-10-01T11:56:14.558Z,33.03
2022-10-01T11:59:03.161Z,31.90
2022-10-01T12:01:42.334Z,31.65
2022-10-01T12:04:25.301Z,30.98
2022-10-01T12:07:10.539Z,33.03
2022-10-01T12:09:54.660Z,31.77
2022-10-01T12:12:36.203Z,31.10
2022-10-01T12:15:26.708Z,31.02
2022-10-01T12:17:59.958Z,19.60
2022-10-01T12:20:41.256Z,21.98
2022-10-01T12:23:14.764Z,19.65
2022-10-01T12:25:54.910Z,16.30
2022-10-01T12:28:42.392Z,17.88
2022-10-01T12:31:34.587Z,15.77
2022-10-01T12:34:13.004Z,16.00
2022-10-01T12:36:42.563Z,16.63
2022-10-01T12:39:26.039Z,16.50
2022-10-01T12:42:13.755Z,20.63
2022-10-01T12:45:05.027Z,20.75
2022-10-01T12:47:42.866Z,20.33
2022-10-01T12:50:27.825Z,20.48
2022-10-01T12:53:02.608Z,22.92
2022-10-01T12:55:51.513Z,19.33
2022-10-01T12:58:36.384Z,15.63
2022-10-01T13:01:21.674Z,16.10
2022-10-01T13:04:20.413Z,13.95
2022-10-01T13:07:19.270Z,14.10
2022-10-01T13:09:57.771Z,13.40
2022-10-01T13:13:11.311Z,13.85
2022-10-01T13:15:40.942Z,13.75
2022-10-01T13:18:20.981Z,14.50
2022-10-01T13:21:06.636Z,16.83
2022-10-01T13:24:20.627Z,17.33
2022-10-01T13:26:51.848Z,14.40
2022-10-01T13:29:35.501Z,16.33
2022-10-01T13:32:30.804Z,15.13
2022-10-01T13:34:58.755Z,13.35
2022-10-01T13:37:40.425Z,13.35
2022-10-01T13:40:27.396Z,13.82
2022-10-01T13:42:58.108Z,11.27
2022-10-01T13:45:43.705Z,9.90
2022-10-01T13:48:09.986Z,13.13
2022-10-01T13:50:38.820Z,11.90
2022-10-01T13:53:20.872Z,10.18
2022-10-01T13:55:48.720Z,9.73
2022-10-01T13:58:31.376Z,8.48
2022-10-01T14:01:04.611Z,8.27
2022-10-01T14:03:39.151Z,10.00
2022-10-01T14:06:15.228Z,8.07
2022-10-01T14:08:47.578Z,9.05
2022-10-01T14:11:41.925Z,10.45
2022-10-01T14:15:13.170Z,9.65
2022-10-01T14:17:41.175Z,10.15
2022-10-01T14:20:08.522Z,10.88
2022-10-01T14:23:20.075Z,11.77
2022-10-01T14:25:56.793Z,12.60
2022-10-01T14:28:31.434Z,9.75
2022-10-01T14:31:28.934Z,12.32
2022-10-01T14:34:10.324Z,13.13
2022-10-01T14:36:44.056Z,11.52
2022-10-01T14:39:13.324Z,12.95
2022-10-01T14:41:39.706Z,13.90
2022-10-01T14:44:40.395Z,15.45
2022-10-01T14:47:24.420Z,12.18
2022-10-01T14:49:51.797Z,12.15
2022-10-01T14:52:27.744Z,14.63
2022-10-01T14:54:59.188Z,14.48
2022-10-01T14:57:49.391Z,11.70
2022-10-01T15:00:18.750Z,11.98
2022-10-01T15:02:51.957Z,11.82
2022-10-01T15:05:27.978Z,11.00
2022-10-01T15:07:54.468Z,12.15
2022-10-01T15:10:25.705Z,10.02
2022-10-01T15:12:53.953Z,11.65
2022-10-01T15:15:23.059Z,12.38
2022-10-01T15:17:50.529Z,10.43
2022-10-01T15:20:17.706Z,11.07
2022-10-01T15:22:47.540Z,10.98
2022-10-01T15:25:22.282Z,10.95
2022-10-01T15:27:49.521Z,10.07
2022-10-01T15:30:18.248Z,10.25
2022-10-01T15:32:46.649Z,13.85
2022-10-01T15:35:16.945Z,11.13
2022-10-01T15:37:49.326Z,11.07
2022-10-01T15:40:29.638Z,12.77
2022-10-01T15:43:07.988Z,10.80
2022-10-01T15:45:36.949Z,13.77
2022-10-01T15:48:03.435Z,10.75
2022-10-01T15:50:39.330Z,11.75
2022-10-01T15:53:19.614Z,11.85
2022-10-01T15:55:50.079Z,13.50
2022-10-01T15:58:32.193Z,13.43
2022-10-01T16:01:05.107Z,14.57
2022-10-01T16:03:40.662Z,13.98
2022-10-01T16:06:42.323Z,13.88
2022-10-01T16:09:18.923Z,12.38
2022-10-01T16:12:12.041Z,11.32
2022-10-01T16:14:43.908Z,11.90
2022-10-01T16:17:19.626Z,11.60
2022-10-01T16:19:52.110Z,11.20
2022-10-01T16:22:32.662Z,11.55
2022-10-01T16:25:25.826Z,9.93
2022-10-01T16:28:01.193Z,11.23
2022-10-01T16:30:29.588Z,11.05
2022-10-01T16:32:59.070Z,9.23
2022-10-01T16:35:31.040Z,10.30
2022-10-01T16:37:58.031Z,9.50
2022-10-01T16:40:30.604Z,9.68
2022-10-01T16:42:59.090Z,9.75
2022-10-01T16:45:29.509Z,8.20
2022-10-01T16:47:59.305Z,8.60
2022-10-01T16:50:26.015Z,13.80
2022-10-01T16:52:53.599Z,8.43
2022-10-01T16:55:24.290Z,7.95
2022-10-01T16:57:51.466Z,9.10
2022-10-01T17:00:20.098Z,9.52
2022-10-01T17:02:46.674Z,9.13
2022-10-01T17:05:18.502Z,10.32
2022-10-01T17:07:45.150Z,12.52
2022-10-01T17:10:13.482Z,10.55
2022-10-01T17:12:41.091Z,7.72
2022-10-01T17:15:11.917Z,8.93
2022-10-01T17:17:38.209Z,8.35
2022-10-01T17:20:05.315Z,9.98
2022-10-01T17:22:31.762Z,11.10
2022-10-01T17:24:58.130Z,8.60
2022-10-01T17:27:24.487Z,9.63
2022-10-01T17:29:50.795Z,15.25
2022-10-01T17:32:18.871Z,13.30
2022-10-01T17:34:45.929Z,14.80
2022-10-01T17:37:12.798Z,10.68
2022-10-01T17:39:42.967Z,12.98
2022-10-01T17:42:10.245Z,11.73
2022-10-01T17:44:36.961Z,14.70
2022-10-01T17:47:04.529Z,13.48
2022-10-01T17:49:31.117Z,14.68
2022-10-01T17:51:57.416Z,14.52
2022-10-01T17:54:24.270Z,15.93
2022-10-01T17:56:55.087Z,15.18
2022-10-01T17:59:21.739Z,15.98
2022-10-01T18:01:48.251Z,15.60
2022-10-01T18:04:14.674Z,15.38
2022-10-01T18:06:41.334Z,13.93
2022-10-01T18:09:07.934Z,15.27
2022-10-01T18:11:34.301Z,15.57
2022-10-01T18:14:00.683Z,14.15
2022-10-01T18:16:27.906Z,15.80
2022-10-01T18:21:46.365Z,16.48
2022-10-01T18:24:12.949Z,15.18
2022-10-01T18:26:39.731Z,18.10
2022-10-01T18:29:06.264Z,16.85
2022-10-01T18:31:38.663Z,18.73
2022-10-01T18:34:16.150Z,19.48
2022-10-01T18:36:57.888Z,17.95
2022-10-01T18:39:33.347Z,19.10
2022-10-01T18:42:02.360Z,19.63
2022-10-01T18:44:28.862Z,20.33
2022-10-01T18:47:06.975Z,19.15
2022-10-01T18:49:48.754Z,21.20
2022-10-01T18:52:47.812Z,22.58
2022-10-01T18:55:51.461Z,22.27
2022-10-01T18:58:36.263Z,24.38
2022-10-01T19:01:34.842Z,27.08
2022-10-01T19:04:19.774Z,26.58
2022-10-01T19:06:54.686Z,28.38
2022-10-01T19:09:27.108Z,29.95
2022-10-01T19:12:04.830Z,30.48
2022-10-01T19:15:00.483Z,29.10
2022-10-01T19:17:42.044Z,30.85
2022-10-01T19:20:33.299Z,29.98
2022-10-01T19:23:26.524Z,27.75
2022-10-01T19:26:10.328Z,29.48
2022-10-01T19:28:48.368Z,29.23
2022-10-01T19:31:20.804Z,26.33
2022-10-01T19:34:00.732Z,25.70
2022-10-01T19:36:34.768Z,27.38
2022-10-01T19:39:06.359Z,29.95
2022-10-01T19:41:38.831Z,27.33
2022-10-01T19:44:20.697Z,26.58
2022-10-01T19:46:49.655Z,27.60
2022-10-01T19:49:27.393Z,27.65
2022-10-01T19:52:03.266Z,25.58
2022-10-01T19:54:33.249Z,27.17
2022-10-01T19:57:24.753Z,24.77
2022-10-01T19:59:56.840Z,24.30
2022-10-01T20:02:38.011Z,24.55
2022-10-01T20:05:18.332Z,24.63
2022-10-01T20:08:11.147Z,24.90
2022-10-01T20:10:41.407Z,24.88
2022-10-01T20:13:33.460Z,25.52
2022-10-01T20:16:20.070Z,23.88
2022-10-01T20:18:58.756Z,24.60
2022-10-01T20:21:36.919Z,25.00
2022-10-01T20:24:14.367Z,23.33
2022-10-01T20:26:52.191Z,23.40
2022-10-01T20:29:29.529Z,25.55
2022-10-01T20:32:08.658Z,24.08
2022-10-01T20:34:44.936Z,24.10
2022-10-01T20:37:24.977Z,23.00
2022-10-01T20:39:59.815Z,24.90
2022-10-01T20:42:33.819Z,25.65
2022-10-01T20:45:00.765Z,24.27
2022-10-01T20:47:37.030Z,23.13
2022-10-01T20:50:24.647Z,23.33
2022-10-01T20:53:09.866Z,23.38
2022-10-01T20:55:41.406Z,22.45
2022-10-01T20:58:17.844Z,23.13
2022-10-01T21:00:46.003Z,23.98
2022-10-01T21:03:19.230Z,23.17
2022-10-01T21:05:53.536Z,22.83
2022-10-01T21:13:36.686Z,22.65
2022-10-01T21:16:20.753Z,22.73
2022-10-01T21:19:06.716Z,24.17
2022-10-01T21:21:56.622Z,21.50
2022-10-01T21:24:48.530Z,23.05
2022-10-01T21:27:33.792Z,21.45
2022-10-01T21:30:14.154Z,21.23
2022-10-01T21:33:08.390Z,20.13
2022-10-01T21:35:46.945Z,20.38
2022-10-01T21:38:19.398Z,21.75
2022-10-01T21:41:16.103Z,20.50
2022-10-01T21:43:56.557Z,19.38
2022-10-01T21:46:55.114Z,19.88
2022-10-01T21:49:39.618Z,20.42
2022-10-01T21:52:26.775Z,19.00
2022-10-01T21:55:05.274Z,19.58
2022-10-01T21:57:43.076Z,21.30
2022-10-01T22:00:22.816Z,19.98
2022-10-01T22:03:22.592Z,21.20
2022-10-01T22:06:01.006Z,21.98
2022-10-01T22:08:48.236Z,20.75
2022-10-01T22:11:22.304Z,21.98
2022-10-01T22:14:16.300Z,22.40
2022-10-01T22:16:48.530Z,21.08
2022-10-01T22:19:19.295Z,22.95
2022-10-01T22:21:50.473Z,23.90
2022-10-01T22:24:21.664Z,23.75
2022-10-01T22:26:57.553Z,25.65
2022-10-01T22:29:28.732Z,29.42
2022-10-01T22:32:01.250Z,30.52
2022-10-01T22:34:34.044Z,29.83
2022-10-01T22:37:07.921Z,27.45
2022-10-01T22:39:40.026Z,27.27
2022-10-01T22:42:14.157Z,30.10
2022-10-01T22:44:40.675Z,31.10
2022-10-01T22:47:22.515Z,30.23
2022-10-01T22:50:08.667Z,29.25
2022-10-01T22:52:44.088Z,30.10
2022-10-01T22:55:24.600Z,31.15
2022-10-01T22:57:51.181Z,28.95
2022-10-01T23:00:18.149Z,30.17
2022-10-01T23:03:06.355Z,28.13
2022-10-01T23:05:57.156Z,30.48
2022-10-01T23:08:45.142Z,30.38
2022-10-01T23:11:28.037Z,32.78
2022-10-01T23:14:30.431Z,33.70
2022-10-01T23:17:08.967Z,37.72
2022-10-01T23:19:48.185Z,38.22
2022-10-01T23:22:32.432Z,40.53
2022-10-01T23:25:13.985Z,40.95
2022-10-01T23:28:09.664Z,44.95
2022-10-01T23:30:57.300Z,47.20
2022-10-01T23:33:37.598Z,47.22
2022-10-01T23:36:21.689Z,47.15
2022-10-01T23:39:25.689Z,47.47
2022-10-01T23:42:02.003Z,45.60
2022-10-01T23:44:55.744Z,49.75
2022-10-01T23:47:30.870Z,46.70
2022-10-01T23:50:00.366Z,49.10
2022-10-01T23:52:38.401Z,49.58
2022-10-01T23:55:40.558Z,46.35
2022-10-01T23:58:13.188Z,44.33
